Time;durP1;ratioP1;P1;durP2;ratioP2;P2;SDS_P1;SDS_P2;PMS_P1;PMS_P2;Temp;Humidity;BMP_temperature;BMP_pressure;BME280_temperature;BME280_humidity;BME280_pressure;Samples;Min_cycle;Max_cycle;Signal;HPM_P1;HPM_P2
2022/01/16 00:00:26;;;;;;;14.90;4.57;;;6.60;99.90;;;;;;5044234;28;20871;-67
2022/01/16 00:05:32;;;;;;;10.67;3.73;;;6.60;99.90;;;;;;5037311;28;20205;-67
2022/01/16 00:07:59;;;;;;;10.03;4.00;;;6.70;99.90;;;;;;5038596;28;20257;-67
2022/01/16 00:10:26;;;;;;;8.57;3.40;;;6.70;99.90;;;;;;5044680;28;20187;-67
2022/01/16 00:12:58;;;;;;;10.17;4.10;;;6.70;99.90;;;;;;5044428;28;20262;-67
2022/01/16 00:15:24;;;;;;;10.47;4.53;;;6.70;99.90;;;;;;5036339;28;20233;-67
2022/01/16 00:18:09;;;;;;;14.60;3.90;;;6.80;99.90;;;;;;5046269;28;20825;-66
2022/01/16 00:20:36;;;;;;;14.17;3.83;;;6.80;99.90;;;;;;5042587;28;20223;-66
2022/01/16 00:23:06;;;;;;;16.33;4.80;;;6.90;99.90;;;;;;5043154;28;20187;-66
2022/01/16 00:25:32;;;;;;;15.57;4.57;;;6.90;99.90;;;;;;5041650;28;20926;-66
2022/01/16 00:27:58;;;;;;;9.07;3.90;;;6.90;99.90;;;;;;5023273;28;20188;-66
2022/01/16 00:30:24;;;;;;;8.30;3.93;;;6.90;99.90;;;;;;5020258;28;20202;-67
2022/01/16 00:32:51;;;;;;;11.37;4.03;;;7.00;99.90;;;;;;5037868;28;20949;-65
2022/01/16 00:35:20;;;;;;;16.80;5.00;;;7.00;99.90;;;;;;5040661;28;20217;-66
2022/01/16 00:37:48;;;;;;;20.33;5.13;;;7.00;99.90;;;;;;5039909;28;20180;-66
2022/01/16 00:40:14;;;;;;;15.27;4.57;;;7.00;99.90;;;;;;5043509;28;20771;-66
2022/01/16 00:42:41;;;;;;;11.17;4.20;;;7.00;99.90;;;;;;5024031;28;20188;-65
2022/01/16 00:45:08;;;;;;;9.13;3.70;;;7.00;99.90;;;;;;5041743;28;20274;-66
2022/01/16 00:47:34;;;;;;;10.43;4.23;;;7.00;99.90;;;;;;5042816;28;20184;-66
2022/01/16 00:50:00;;;;;;;8.87;3.90;;;7.00;99.90;;;;;;5057439;28;20244;-66
2022/01/16 00:52:27;;;;;;;9.30;3.70;;;7.00;99.90;;;;;;5041224;28;20187;-63
2022/01/16 00:54:55;;;;;;;7.63;3.27;;;7.00;99.90;;;;;;5058325;28;20914;-63
2022/01/16 00:57:21;;;;;;;10.97;3.20;;;7.00;99.90;;;;;;5047556;28;20219;-63
2022/01/16 00:59:48;;;;;;;12.53;3.57;;;7.10;99.90;;;;;;5044239;28;20303;-63
2022/01/16 01:02:14;;;;;;;12.73;3.73;;;7.10;99.90;;;;;;5045290;28;20218;-62
2022/01/16 01:04:44;;;;;;;10.97;3.43;;;7.10;99.90;;;;;;5054381;28;20200;-64
2022/01/16 01:07:11;;;;;;;8.87;3.20;;;7.20;99.90;;;;;;5042851;28;20274;-64
2022/01/16 01:09:37;;;;;;;11.27;3.00;;;7.20;99.90;;;;;;5045980;28;20191;-64
2022/01/16 01:12:06;;;;;;;8.40;2.80;;;7.20;99.90;;;;;;5044344;28;20183;-65
2022/01/16 01:14:52;;;;;;;7.30;2.80;;;7.10;99.90;;;;;;5045480;28;20191;-64
2022/01/16 01:17:24;;;;;;;7.50;2.63;;;7.10;99.90;;;;;;5029204;28;20908;-64
2022/01/16 01:19:51;;;;;;;7.13;2.77;;;7.10;99.90;;;;;;5044317;28;20208;-64
2022/01/16 01:22:18;;;;;;;7.90;2.50;;;7.00;99.90;;;;;;5045162;28;20188;-64
2022/01/16 01:24:44;;;;;;;6.57;2.83;;;6.90;99.90;;;;;;5047313;28;20187;-64
2022/01/16 01:27:23;;;;;;;5.90;2.90;;;6.90;99.90;;;;;;5046407;28;20198;-65
2022/01/16 01:30:06;;;;;;;7.23;2.87;;;6.90;99.90;;;;;;5053186;28;20900;-64
2022/01/16 01:32:37;;;;;;;10.80;3.40;;;6.80;99.90;;;;;;5040029;28;20258;-64
2022/01/16 01:35:06;;;;;;;13.10;4.07;;;6.70;99.90;;;;;;5044800;28;20725;-64
2022/01/16 01:37:32;;;;;;;15.17;4.03;;;6.70;99.90;;;;;;5058883;28;20180;-64
2022/01/16 01:39:59;;;;;;;13.93;4.53;;;6.70;99.90;;;;;;5035815;28;20239;-65
2022/01/16 01:42:32;;;;;;;14.63;4.50;;;6.60;99.90;;;;;;5031963;28;20183;-65
2022/01/16 01:53:22;;;;;;;13.40;3.20;;;6.40;99.90;;;;;;5035778;28;20528;-65
2022/01/16 01:55:48;;;;;;;11.33;3.20;;;6.40;99.90;;;;;;5047724;28;20219;-66
2022/01/16 01:58:15;;;;;;;21.53;5.67;;;6.30;99.90;;;;;;5047588;28;20226;-66
2022/01/16 02:00:42;;;;;;;26.80;4.97;;;6.30;99.90;;;;;;5047132;28;20233;-65
2022/01/16 02:03:22;;;;;;;29.23;7.40;;;6.20;99.90;;;;;;5046719;28;20648;-64
2022/01/16 02:05:49;;;;;;;19.30;4.37;;;6.20;99.90;;;;;;5044201;28;20191;-64
2022/01/16 02:08:16;;;;;;;16.73;3.80;;;6.00;99.90;;;;;;5048887;28;20555;-64
2022/01/16 02:10:43;;;;;;;19.30;4.40;;;6.10;99.90;;;;;;5065432;28;20183;-65
2022/01/16 02:13:19;;;;;;;13.53;3.10;;;6.10;99.90;;;;;;5065314;28;20230;-64
2022/01/16 02:37:11;;;;;;;5.00;1.87;;;6.40;99.90;;;;;;5045719;28;20266;-63
2022/01/16 02:39:42;;;;;;;6.47;1.90;;;6.50;99.90;;;;;;5064896;28;20274;-63
2022/01/16 02:42:12;;;;;;;4.83;1.87;;;6.60;99.90;;;;;;5045911;28;20186;-63
2022/01/16 02:44:46;;;;;;;6.63;1.80;;;6.70;99.90;;;;;;5048031;28;20198;-63
2022/01/16 02:47:19;;;;;;;6.23;1.90;;;6.70;99.90;;;;;;5030543;28;20246;-64
2022/01/16 02:49:48;;;;;;;6.50;2.00;;;6.70;99.90;;;;;;5046289;28;20237;-64
2022/01/16 02:52:19;;;;;;;12.17;2.17;;;6.70;99.90;;;;;;5044276;28;20189;-63
2022/01/16 02:54:49;;;;;;;7.30;2.07;;;6.70;99.90;;;;;;5045957;28;20175;-63
2022/01/16 02:57:20;;;;;;;5.37;1.80;;;6.70;99.90;;;;;;5041242;28;20307;-63
2022/01/16 02:59:55;;;;;;;4.97;1.97;;;6.70;99.90;;;;;;5052217;28;20575;-64
2022/01/16 03:02:24;;;;;;;8.67;2.17;;;6.70;99.90;;;;;;5034279;28;20316;-63
2022/01/16 03:04:52;;;;;;;9.93;1.90;;;6.70;99.90;;;;;;5044990;28;20690;-63
2022/01/16 03:07:18;;;;;;;8.53;1.93;;;6.70;99.90;;;;;;5046958;28;20276;-63
2022/01/16 03:12:40;;;;;;;5.67;1.97;;;6.60;99.90;;;;;;5033107;28;20214;-64
2022/01/16 03:15:07;;;;;;;10.83;2.50;;;6.50;99.90;;;;;;5048520;28;20213;-64
2022/01/16 03:17:39;;;;;;;9.47;2.50;;;6.50;99.90;;;;;;5064045;28;20808;-64
2022/01/16 03:22:53;;;;;;;9.80;2.60;;;6.40;99.90;;;;;;5038905;28;20188;-64
2022/01/16 03:25:19;;;;;;;9.93;2.57;;;6.30;99.90;;;;;;5034214;28;20518;-66
2022/01/16 03:27:45;;;;;;;9.83;2.47;;;6.30;99.90;;;;;;5040421;28;20203;-66
2022/01/16 03:30:13;;;;;;;10.20;2.60;;;6.20;99.90;;;;;;5046635;28;20189;-65
2022/01/16 03:32:40;;;;;;;4.33;1.93;;;6.20;99.90;;;;;;5041241;28;20318;-64
2022/01/16 03:35:07;;;;;;;9.73;2.20;;;6.10;99.90;;;;;;5029876;28;20274;-65
2022/01/16 03:37:33;;;;;;;9.20;2.27;;;6.10;99.90;;;;;;5046010;28;20245;-65
2022/01/16 03:39:59;;;;;;;9.17;3.00;;;6.00;99.90;;;;;;5038379;28;20344;-63
2022/01/16 03:42:29;;;;;;;5.87;1.67;;;6.00;99.90;;;;;;5046235;28;20213;-64
2022/01/16 03:44:55;;;;;;;8.87;1.70;;;6.00;99.90;;;;;;5027935;28;20196;-65
2022/01/16 03:47:22;;;;;;;4.07;1.80;;;6.00;99.90;;;;;;5041035;28;20190;-65
2022/01/16 03:49:48;;;;;;;5.70;1.90;;;6.00;99.90;;;;;;5043064;28;21756;-64
2022/01/16 03:52:14;;;;;;;8.77;2.53;;;6.10;99.90;;;;;;5039108;28;20207;-64
2022/01/16 03:54:40;;;;;;;11.53;1.90;;;6.00;99.90;;;;;;5037164;28;20704;-64
2022/01/16 03:57:07;;;;;;;5.80;1.63;;;5.90;99.90;;;;;;5046580;28;20215;-64
2022/01/16 03:59:33;;;;;;;7.40;1.73;;;5.90;99.90;;;;;;5046781;28;20199;-68
2022/01/16 04:02:00;;;;;;;5.13;1.83;;;5.80;99.90;;;;;;5028904;28;20193;-65
2022/01/16 04:04:27;;;;;;;4.27;1.50;;;5.70;99.90;;;;;;5042200;28;20811;-64
2022/01/16 04:06:53;;;;;;;8.27;1.93;;;5.70;99.90;;;;;;5042225;28;20192;-65
2022/01/16 04:09:19;;;;;;;5.47;1.70;;;5.60;99.90;;;;;;5063678;28;20191;-64
2022/01/16 04:11:51;;;;;;;8.10;1.80;;;5.60;99.90;;;;;;5047292;28;20183;-64
2022/01/16 04:14:26;;;;;;;5.27;1.60;;;5.50;99.90;;;;;;5038301;28;20192;-64
2022/01/16 04:16:52;;;;;;;7.00;1.93;;;5.50;99.90;;;;;;5045568;28;20275;-64
2022/01/16 04:19:21;;;;;;;10.40;2.27;;;5.50;99.90;;;;;;5023569;28;20219;-63
2022/01/16 04:21:47;;;;;;;8.07;1.90;;;5.50;99.90;;;;;;5044470;28;20214;-64
2022/01/16 04:24:13;;;;;;;8.77;1.60;;;5.50;99.90;;;;;;5041616;28;20199;-64
2022/01/16 04:26:39;;;;;;;9.23;1.70;;;5.60;99.90;;;;;;5043015;28;20622;-63
2022/01/16 04:29:06;;;;;;;7.13;1.93;;;5.50;99.90;;;;;;5037033;28;20195;-64
2022/01/16 04:31:32;;;;;;;2.70;1.60;;;5.60;99.90;;;;;;5062797;28;20217;-65
2022/01/16 04:33:58;;;;;;;5.97;2.03;;;5.50;99.90;;;;;;5037405;28;20196;-64
2022/01/16 04:36:24;;;;;;;6.43;1.70;;;5.50;99.90;;;;;;5039171;28;20210;-63
2022/01/16 04:38:52;;;;;;;12.10;2.60;;;5.40;99.90;;;;;;5045402;28;20199;-64
2022/01/16 04:44:05;;;;;;;5.00;1.80;;;5.40;99.90;;;;;;5040444;28;20183;-65
2022/01/16 04:46:33;;;;;;;5.93;1.60;;;5.40;99.90;;;;;;5040966;28;20190;-62
2022/01/16 04:49:02;;;;;;;2.97;1.43;;;5.40;99.90;;;;;;5047257;28;20700;-63
2022/01/16 04:51:31;;;;;;;5.87;2.03;;;5.40;99.90;;;;;;5055420;28;20731;-64
2022/01/16 04:53:58;;;;;;;3.00;1.47;;;5.30;99.90;;;;;;5028863;28;20183;-63
2022/01/16 04:56:24;;;;;;;8.03;1.97;;;5.20;99.90;;;;;;5045880;28;20210;-64
2022/01/16 04:58:50;;;;;;;20.00;2.53;;;5.10;99.90;;;;;;5045134;28;20194;-62
2022/01/16 05:01:17;;;;;;;9.03;2.30;;;5.20;99.90;;;;;;5045683;28;20186;-62
2022/01/16 05:03:43;;;;;;;6.77;2.13;;;5.30;99.90;;;;;;5045750;28;20203;-64
2022/01/16 05:06:10;;;;;;;5.70;1.93;;;5.20;99.90;;;;;;5050375;28;20704;-63
2022/01/16 05:08:37;;;;;;;5.93;1.80;;;5.20;99.90;;;;;;5040628;28;20591;-62
2022/01/16 05:11:05;;;;;;;6.17;1.77;;;5.20;99.90;;;;;;5029338;28;20361;-63
2022/01/16 05:18:45;;;;;;;10.97;2.17;;;5.10;99.90;;;;;;5051255;28;20199;-63
2022/01/16 05:21:12;;;;;;;4.70;1.70;;;5.20;99.90;;;;;;5049716;28;20254;-62
2022/01/16 05:23:41;;;;;;;11.10;2.37;;;5.20;99.90;;;;;;5046405;28;20633;-63
2022/01/16 05:26:09;;;;;;;5.10;1.80;;;5.10;99.90;;;;;;5029729;28;20179;-63
2022/01/16 05:28:36;;;;;;;6.00;2.27;;;5.00;99.90;;;;;;5042020;28;20191;-63
2022/01/16 05:31:03;;;;;;;5.17;1.77;;;5.10;99.90;;;;;;5066385;28;20257;-62
2022/01/16 05:33:31;;;;;;;6.43;1.80;;;5.00;99.90;;;;;;5049904;28;20210;-64
2022/01/16 05:35:58;;;;;;;6.93;1.63;;;5.10;99.90;;;;;;5050825;28;20283;-63
2022/01/16 05:38:25;;;;;;;7.13;1.67;;;5.20;99.90;;;;;;5046956;28;20812;-63
2022/01/16 05:40:51;;;;;;;6.87;1.60;;;5.20;99.90;;;;;;5046860;28;20211;-62
2022/01/16 05:43:18;;;;;;;4.87;1.53;;;5.30;99.90;;;;;;5047842;28;20230;-62
2022/01/16 05:45:44;;;;;;;8.33;1.77;;;5.50;99.90;;;;;;5048822;28;20191;-63
2022/01/16 05:48:11;;;;;;;5.00;1.50;;;5.60;99.90;;;;;;5048060;28;20217;-63
2022/01/16 05:50:37;;;;;;;7.07;1.40;;;5.70;99.90;;;;;;5049036;28;20195;-65
2022/01/16 05:53:04;;;;;;;6.83;1.10;;;5.70;99.90;;;;;;5049413;28;20676;-65
2022/01/16 05:55:36;;;;;;;4.63;1.20;;;5.80;99.90;;;;;;5048930;28;20687;-64
2022/01/16 05:58:08;;;;;;;8.80;1.67;;;5.90;99.90;;;;;;5050416;28;20192;-64
2022/01/16 06:00:37;;;;;;;5.13;1.70;;;5.90;99.90;;;;;;5062901;28;20207;-64
2022/01/16 06:03:04;;;;;;;6.27;1.60;;;5.90;99.90;;;;;;5050451;28;20578;-64
2022/01/16 06:05:31;;;;;;;3.93;1.80;;;5.90;99.90;;;;;;5065498;28;20225;-63
2022/01/16 06:08:00;;;;;;;5.90;1.40;;;6.00;99.90;;;;;;5065485;28;20196;-64
2022/01/16 06:10:29;;;;;;;11.33;1.63;;;6.00;99.90;;;;;;5041784;28;20198;-63
2022/01/16 06:12:55;;;;;;;7.77;1.40;;;6.10;99.90;;;;;;5048458;28;20231;-63
2022/01/16 06:15:23;;;;;;;5.50;1.23;;;6.10;99.90;;;;;;5048682;28;20191;-63
2022/01/16 06:17:50;;;;;;;3.30;1.20;;;6.20;99.90;;;;;;5045549;28;20674;-64
2022/01/16 06:20:17;;;;;;;6.87;1.83;;;6.20;99.90;;;;;;5042535;28;20224;-63
2022/01/16 06:22:45;;;;;;;3.37;1.20;;;6.20;99.90;;;;;;5042846;28;20622;-65
2022/01/16 06:25:13;;;;;;;2.43;1.13;;;6.30;99.90;;;;;;5045632;28;20688;-65
2022/01/16 06:27:41;;;;;;;4.50;1.57;;;6.30;99.90;;;;;;5028151;28;20929;-64
2022/01/16 06:30:11;;;;;;;7.33;1.40;;;6.30;99.90;;;;;;5039678;28;20290;-63
2022/01/16 06:32:38;;;;;;;10.07;1.90;;;6.30;99.90;;;;;;5033638;28;20196;-64
2022/01/16 06:35:07;;;;;;;9.40;1.33;;;6.30;99.90;;;;;;5045876;28;20203;-63
2022/01/16 06:37:33;;;;;;;5.27;1.17;;;6.30;99.90;;;;;;5048871;28;20345;-64
2022/01/16 06:39:59;;;;;;;10.93;1.30;;;6.40;99.90;;;;;;5040808;28;20668;-65
2022/01/16 06:42:26;;;;;;;4.33;1.40;;;6.50;99.90;;;;;;5048963;28;20195;-65
2022/01/16 06:44:52;;;;;;;2.93;1.13;;;6.60;99.90;;;;;;5047313;28;20187;-64
2022/01/16 06:47:19;;;;;;;2.77;1.10;;;6.60;99.90;;;;;;5062921;28;20620;-65
2022/01/16 06:49:45;;;;;;;7.97;1.33;;;6.60;99.90;;;;;;5047210;28;21110;-65
2022/01/16 06:52:11;;;;;;;4.50;1.27;;;6.60;99.90;;;;;;5040615;28;20204;-63
2022/01/16 06:54:39;;;;;;;6.77;1.20;;;6.60;99.90;;;;;;5049395;28;20191;-64
2022/01/16 06:57:06;;;;;;;4.00;1.03;;;6.60;99.90;;;;;;5061354;28;20220;-64
2022/01/16 06:59:35;;;;;;;6.57;1.30;;;6.70;99.90;;;;;;5040648;28;20268;-64
2022/01/16 07:02:01;;;;;;;6.00;1.50;;;6.70;99.90;;;;;;5042102;28;20191;-64
2022/01/16 07:04:28;;;;;;;5.43;1.33;;;6.80;99.90;;;;;;5046578;28;20241;-65
2022/01/16 07:06:54;;;;;;;3.03;1.20;;;6.70;99.90;;;;;;5045244;28;20453;-65
2022/01/16 07:09:20;;;;;;;8.57;1.60;;;6.80;99.90;;;;;;5045685;28;20269;-65
2022/01/16 07:11:46;;;;;;;7.23;1.73;;;6.80;99.90;;;;;;5047786;28;20203;-65
2022/01/16 07:14:12;;;;;;;4.13;1.37;;;6.80;99.90;;;;;;5042334;28;20195;-64
2022/01/16 07:16:39;;;;;;;9.87;1.33;;;6.90;99.90;;;;;;5041496;28;20236;-65
2022/01/16 07:19:05;;;;;;;7.50;1.40;;;6.90;99.90;;;;;;5048753;28;20298;-64
2022/01/16 07:21:31;;;;;;;3.70;1.53;;;6.90;99.90;;;;;;5062613;28;20215;-64
2022/01/16 07:23:57;;;;;;;6.23;1.13;;;6.90;99.90;;;;;;5045986;28;20286;-65
2022/01/16 07:26:24;;;;;;;5.57;0.80;;;7.00;99.90;;;;;;5038184;28;20698;-65
2022/01/16 07:28:51;;;;;;;6.83;1.10;;;7.00;99.90;;;;;;5046677;28;20191;-66
2022/01/16 07:31:17;;;;;;;5.10;1.30;;;7.00;99.90;;;;;;5046820;28;20362;-64
2022/01/16 07:33:44;;;;;;;7.07;1.67;;;7.00;99.90;;;;;;5044027;28;20975;-64
2022/01/16 07:36:12;;;;;;;8.00;1.60;;;7.00;99.90;;;;;;5045576;28;20199;-64
2022/01/16 07:38:39;;;;;;;7.17;1.23;;;7.00;99.90;;;;;;5043345;28;20650;-65
2022/01/16 07:41:05;;;;;;;6.83;1.33;;;7.10;99.90;;;;;;5041033;28;20274;-65
2022/01/16 07:43:31;;;;;;;3.60;1.20;;;7.10;99.90;;;;;;5037913;28;20196;-64
2022/01/16 07:45:57;;;;;;;3.00;1.20;;;7.20;99.90;;;;;;5044759;28;20241;-65
2022/01/16 07:48:23;;;;;;;10.77;1.17;;;7.30;99.90;;;;;;5047902;28;20191;-65
2022/01/16 07:50:50;;;;;;;6.10;1.00;;;7.20;99.90;;;;;;5048718;28;20187;-65
2022/01/16 07:53:16;;;;;;;5.83;1.20;;;7.10;99.90;;;;;;5044619;28;20250;-65
2022/01/16 07:55:42;;;;;;;2.93;1.20;;;7.10;99.90;;;;;;5035831;28;20818;-65
2022/01/16 07:58:09;;;;;;;6.10;1.47;;;7.10;99.90;;;;;;5043930;28;20690;-65
2022/01/16 08:00:35;;;;;;;7.33;1.30;;;7.20;99.90;;;;;;5044006;28;20247;-64
2022/01/16 09:31:26;;;;;;;4.43;1.60;;;7.80;99.90;;;;;;5042822;28;20850;-63
2022/01/16 09:33:54;;;;;;;3.60;1.03;;;7.70;99.90;;;;;;5048455;28;20650;-64
2022/01/16 09:36:21;;;;;;;2.57;1.20;;;7.70;99.90;;;;;;5042226;28;20223;-62
2022/01/16 09:38:47;;;;;;;4.10;1.10;;;7.80;99.90;;;;;;5051769;28;20234;-66
2022/01/16 09:41:15;;;;;;;6.93;1.47;;;7.80;99.90;;;;;;5049358;28;20211;-67
2022/01/16 09:43:42;;;;;;;4.00;0.90;;;7.90;99.90;;;;;;5049425;28;20253;-66
2022/01/16 09:46:08;;;;;;;5.07;1.43;;;7.90;99.90;;;;;;5039592;28;20242;-67
2022/01/16 09:48:35;;;;;;;5.60;1.37;;;7.90;99.90;;;;;;5049030;28;20188;-68
2022/01/16 09:51:01;;;;;;;7.07;1.20;;;7.90;99.90;;;;;;5048584;28;20819;-68
2022/01/16 10:11:57;;;;;;;5.70;1.53;;;8.10;99.90;;;;;;5049093;28;20188;-67
2022/01/16 10:14:37;;;;;;;6.73;1.40;;;8.10;99.90;;;;;;5029651;28;20199;-66
2022/01/16 10:17:16;;;;;;;3.03;1.10;;;8.10;99.90;;;;;;5029104;28;20191;-67
2022/01/16 10:19:43;;;;;;;7.13;1.33;;;8.10;99.90;;;;;;5044431;28;20318;-67
2022/01/16 10:22:13;;;;;;;5.00;1.00;;;8.10;99.90;;;;;;5047529;28;20659;-67
2022/01/16 10:24:41;;;;;;;2.13;1.10;;;8.10;99.90;;;;;;5043184;28;20194;-67
2022/01/16 10:27:08;;;;;;;4.60;1.30;;;8.20;99.90;;;;;;5048729;28;20558;-66
2022/01/16 10:29:46;;;;;;;4.03;1.30;;;8.30;99.90;;;;;;5045520;28;20698;-67
2022/01/16 10:32:23;;;;;;;7.90;1.20;;;8.40;99.90;;;;;;5032402;28;20185;-66
2022/01/16 10:35:06;;;;;;;3.33;1.10;;;8.50;99.90;;;;;;5046012;28;20199;-66
2022/01/16 10:37:33;;;;;;;4.53;1.40;;;8.60;99.90;;;;;;5042541;28;20655;-66
2022/01/16 10:58:50;;;;;;;4.03;1.30;;;14.30;99.90;;;;;;5045506;28;20659;-67
2022/01/16 11:01:19;;;;;;;4.23;1.20;;;13.10;99.50;;;;;;5046142;28;20829;-67
2022/01/16 11:03:53;;;;;;;3.23;1.53;;;11.90;99.30;;;;;;5031567;28;20180;-67
2022/01/16 11:06:21;;;;;;;7.10;1.40;;;11.60;99.90;;;;;;5049064;28;20214;-68
2022/01/16 11:09:01;;;;;;;4.77;1.40;;;11.70;99.90;;;;;;5028865;28;20285;-68
2022/01/16 11:11:32;;;;;;;6.73;1.50;;;11.70;99.90;;;;;;5038245;28;20282;-67
2022/01/16 11:14:04;;;;;;;2.73;1.37;;;11.60;99.90;;;;;;5035125;28;20370;-67
2022/01/16 11:16:31;;;;;;;7.60;1.40;;;11.10;99.40;;;;;;5044137;28;20191;-67
2022/01/16 11:18:59;;;;;;;6.83;1.10;;;10.50;99.40;;;;;;5048475;28;20194;-67
2022/01/16 11:21:41;;;;;;;2.13;1.20;;;10.30;99.90;;;;;;5030795;28;20294;-67
2022/01/16 11:26:45;;;;;;;6.47;1.40;;;10.10;99.90;;;;;;5044055;28;20565;-67
2022/01/16 11:29:13;;;;;;;10.20;1.93;;;10.00;99.90;;;;;;5038088;28;20184;-67
2022/01/16 11:31:43;;;;;;;3.47;1.37;;;9.90;99.90;;;;;;5025447;28;20191;-67
2022/01/16 11:34:11;;;;;;;2.77;1.13;;;9.60;99.90;;;;;;5042324;28;20286;-67
2022/01/16 11:36:37;;;;;;;5.57;1.00;;;9.60;99.90;;;;;;5044660;28;20191;-67
2022/01/16 11:39:11;;;;;;;2.73;1.50;;;9.70;99.90;;;;;;5041812;28;20218;-67
2022/01/16 11:41:55;;;;;;;1.97;1.23;;;9.70;99.90;;;;;;5045693;28;20199;-67
2022/01/16 11:44:34;;;;;;;5.83;1.30;;;9.80;99.90;;;;;;5038205;28;20199;-67
2022/01/16 11:47:04;;;;;;;7.17;1.43;;;9.80;99.90;;;;;;5034096;28;20211;-67
2022/01/16 11:49:42;;;;;;;7.07;1.47;;;9.60;99.80;;;;;;5036691;28;20191;-67
2022/01/16 11:52:18;;;;;;;4.77;1.10;;;9.40;99.90;;;;;;5021900;28;20260;-67
2022/01/16 11:54:50;;;;;;;3.07;1.30;;;9.50;99.90;;;;;;5038538;28;21003;-67
2022/01/16 11:57:28;;;;;;;2.67;1.17;;;9.50;99.90;;;;;;5038705;28;20199;-67
2022/01/16 12:00:15;;;;;;;2.77;1.10;;;9.70;99.90;;;;;;5047267;28;20302;-67
2022/01/16 12:02:52;;;;;;;2.27;1.10;;;9.70;99.90;;;;;;5046937;28;20211;-68
2022/01/16 12:05:29;;;;;;;3.40;1.30;;;9.50;99.90;;;;;;5046011;28;20217;-68
2022/01/16 12:08:20;;;;;;;3.77;1.40;;;9.40;99.90;;;;;;5041286;28;20212;-68
2022/01/16 12:10:50;;;;;;;5.63;1.23;;;9.20;99.90;;;;;;5042089;28;20258;-68
2022/01/16 12:13:50;;;;;;;4.77;1.43;;;9.20;99.90;;;;;;5044128;28;20229;-68
2022/01/16 12:16:43;;;;;;;3.37;1.20;;;9.30;99.90;;;;;;5041916;28;20871;-68
2022/01/16 12:19:46;;;;;;;6.97;1.40;;;9.40;99.90;;;;;;5036913;28;20672;-67
2022/01/16 12:22:15;;;;;;;6.17;1.60;;;9.30;99.90;;;;;;4918705;28;20218;-68
2022/01/16 12:25:08;;;;;;;2.10;1.10;;;9.40;99.90;;;;;;5027992;28;20410;-68
2022/01/16 12:27:37;;;;;;;4.40;1.70;;;9.30;99.90;;;;;;5010999;28;20345;-67
2022/01/16 12:30:14;;;;;;;4.23;1.20;;;9.10;99.90;;;;;;5039889;28;20689;-66
2022/01/16 12:32:52;;;;;;;3.80;1.33;;;8.90;99.90;;;;;;5040030;28;20325;-66
2022/01/16 12:35:55;;;;;;;3.07;1.27;;;8.90;99.90;;;;;;5042565;28;20194;-66
2022/01/16 12:38:28;;;;;;;6.40;1.50;;;8.90;99.90;;;;;;5041217;28;20303;-68
2022/01/16 12:41:16;;;;;;;2.17;1.10;;;9.00;99.90;;;;;;5054566;28;20762;-68
2022/01/16 12:43:55;;;;;;;2.53;1.17;;;9.00;99.90;;;;;;5054297;28;20196;-65
2022/01/16 12:46:30;;;;;;;5.33;1.20;;;9.00;99.90;;;;;;5041255;28;20227;-67
2022/01/16 12:49:02;;;;;;;2.17;1.00;;;9.00;99.90;;;;;;5048420;28;20698;-68
2022/01/16 12:51:32;;;;;;;3.70;1.20;;;9.00;99.90;;;;;;5039218;28;20199;-68
2022/01/16 12:54:22;;;;;;;3.13;1.00;;;9.00;99.90;;;;;;5044515;28;20195;-67
2022/01/16 12:56:53;;;;;;;2.80;1.10;;;9.00;99.90;;;;;;5041402;28;20211;-67
2022/01/16 12:59:26;;;;;;;2.60;1.10;;;9.00;99.90;;;;;;5040481;28;20195;-68
2022/01/16 13:02:02;;;;;;;4.53;1.10;;;9.10;99.90;;;;;;5039930;28;20184;-68
2022/01/16 13:04:38;;;;;;;6.07;1.40;;;9.00;98.90;;;;;;5042808;28;20231;-68
2022/01/16 13:07:17;;;;;;;3.10;1.20;;;9.00;99.90;;;;;;5043035;28;20248;-68
2022/01/16 13:09:47;;;;;;;2.93;1.07;;;9.00;99.50;;;;;;5049651;28;20198;-68
2022/01/16 13:12:13;;;;;;;5.27;1.40;;;8.90;98.30;;;;;;5024747;28;20247;-68
2022/01/16 13:14:43;;;;;;;4.43;1.30;;;8.90;98.50;;;;;;5044654;28;20199;-69
2022/01/16 13:17:16;;;;;;;1.87;0.87;;;8.90;98.70;;;;;;5035022;28;20251;-69
2022/01/16 13:22:37;;;;;;;4.50;0.90;;;8.70;98.30;;;;;;5044894;28;20493;-69
2022/01/16 13:25:07;;;;;;;8.37;1.03;;;8.70;98.50;;;;;;5059556;28;20606;-68
2022/01/16 13:27:40;;;;;;;7.00;1.33;;;8.60;98.10;;;;;;5051896;28;20191;-68
2022/01/16 13:30:24;;;;;;;4.17;1.20;;;8.60;97.90;;;;;;5029615;28;20195;-69
2022/01/16 13:33:02;;;;;;;1.53;0.90;;;8.60;98.50;;;;;;5049247;28;20249;-69
2022/01/16 13:35:32;;;;;;;3.07;0.97;;;8.60;99.40;;;;;;5049464;28;20210;-68
2022/01/16 13:38:12;;;;;;;2.07;1.10;;;8.50;99.50;;;;;;5039818;28;20770;-69
2022/01/16 13:40:46;;;;;;;4.37;1.13;;;8.50;98.90;;;;;;5045562;28;20314;-68
2022/01/16 13:43:30;;;;;;;3.97;1.00;;;8.40;98.20;;;;;;5040538;28;20965;-68
2022/01/16 13:45:56;;;;;;;3.13;1.07;;;8.40;99.20;;;;;;5047903;28;20205;-68
2022/01/16 13:48:29;;;;;;;1.73;0.90;;;8.40;99.70;;;;;;5048629;28;20198;-68
2022/01/16 13:51:02;;;;;;;2.40;1.00;;;8.40;99.90;;;;;;5049109;28;20199;-68
2022/01/16 13:53:36;;;;;;;4.27;1.20;;;8.40;99.90;;;;;;5032388;28;20187;-68
2022/01/16 13:56:24;;;;;;;5.27;1.20;;;8.30;99.90;;;;;;5027836;28;20920;-68
2022/01/16 13:58:56;;;;;;;4.73;1.17;;;8.20;99.10;;;;;;5045233;28;20188;-68
2022/01/16 14:01:25;;;;;;;3.73;0.87;;;8.20;99.60;;;;;;5045044;28;20687;-68
2022/01/16 14:04:01;;;;;;;4.30;1.20;;;8.10;98.90;;;;;;5048147;28;20892;-68
2022/01/16 14:06:45;;;;;;;2.20;1.10;;;8.00;99.70;;;;;;5042195;28;20598;-68
2022/01/16 14:09:12;;;;;;;2.90;1.07;;;8.00;99.80;;;;;;5043129;28;20206;-68
2022/01/16 14:11:47;;;;;;;3.13;1.10;;;8.00;99.80;;;;;;5039653;28;20238;-68
2022/01/16 14:14:17;;;;;;;4.37;1.07;;;8.00;99.90;;;;;;5047210;28;20201;-68
2022/01/16 14:19:25;;;;;;;3.97;1.17;;;7.90;99.60;;;;;;5043078;28;20640;-68
2022/01/16 14:24:37;;;;;;;4.57;0.90;;;7.80;99.90;;;;;;5039319;28;20195;-68
2022/01/16 14:27:29;;;;;;;4.57;1.10;;;7.80;99.60;;;;;;5047987;28;20655;-68
2022/01/16 14:30:01;;;;;;;3.20;0.83;;;7.70;99.90;;;;;;5031655;28;20682;-68
2022/01/16 14:32:29;;;;;;;4.77;0.90;;;7.70;99.90;;;;;;5049849;28;20191;-68
2022/01/16 14:34:58;;;;;;;5.77;1.27;;;7.60;99.90;;;;;;5048406;28;20268;-68
2022/01/16 14:37:27;;;;;;;4.47;1.30;;;7.60;99.90;;;;;;5048491;28;20755;-68
2022/01/16 14:39:54;;;;;;;7.33;1.20;;;7.50;99.90;;;;;;5040412;28;20890;-68
2022/01/16 14:42:28;;;;;;;2.40;0.93;;;7.50;99.90;;;;;;5064866;28;20215;-68
2022/01/16 14:44:55;;;;;;;3.37;1.10;;;7.50;99.90;;;;;;5031837;28;20183;-68
2022/01/16 14:47:23;;;;;;;3.50;1.30;;;7.40;99.90;;;;;;5030823;28;20738;-68
2022/01/16 14:49:50;;;;;;;4.77;1.10;;;7.40;99.90;;;;;;5045221;28;20754;-68
2022/01/16 14:52:16;;;;;;;4.67;1.27;;;7.40;99.90;;;;;;5045848;28;20226;-68
2022/01/16 14:54:52;;;;;;;3.37;0.93;;;7.30;99.90;;;;;;5062403;28;20737;-68
2022/01/16 14:57:22;;;;;;;2.17;1.10;;;7.30;99.90;;;;;;5031370;28;20619;-68
2022/01/16 14:59:51;;;;;;;3.13;1.07;;;7.30;99.90;;;;;;5049523;28;20211;-69
2022/01/16 15:02:18;;;;;;;4.93;1.20;;;7.30;99.90;;;;;;5047700;28;20210;-68
2022/01/16 15:04:45;;;;;;;7.53;1.30;;;7.20;99.90;;;;;;5051450;28;20203;-69
2022/01/16 15:07:11;;;;;;;2.73;1.00;;;7.20;99.90;;;;;;5047426;28;20302;-69
2022/01/16 15:09:38;;;;;;;3.87;1.30;;;7.20;99.90;;;;;;5039870;28;20188;-69
2022/01/16 15:12:07;;;;;;;3.10;1.03;;;7.10;99.90;;;;;;5045659;28;20346;-69
2022/01/16 15:14:34;;;;;;;4.50;1.17;;;7.10;99.90;;;;;;5046381;28;20271;-69
2022/01/16 15:17:00;;;;;;;8.90;1.50;;;7.10;99.90;;;;;;5040049;28;20204;-69
2022/01/16 15:19:33;;;;;;;3.60;1.40;;;7.00;99.90;;;;;;5051224;28;20199;-69
2022/01/16 15:22:22;;;;;;;4.77;1.30;;;7.00;99.90;;;;;;5064585;28;20198;-69
2022/01/16 15:24:53;;;;;;;4.73;1.30;;;7.00;99.90;;;;;;5042912;28;20337;-68
2022/01/16 15:27:22;;;;;;;3.27;1.10;;;6.90;99.90;;;;;;5039994;28;20205;-69
2022/01/16 15:29:50;;;;;;;3.23;1.10;;;6.90;99.90;;;;;;5036671;28;20195;-68
2022/01/16 15:32:17;;;;;;;6.33;1.20;;;6.90;99.90;;;;;;5046810;28;20184;-69
2022/01/16 15:34:44;;;;;;;1.97;0.70;;;6.90;99.90;;;;;;5048643;28;20222;-69
2022/01/16 15:37:16;;;;;;;5.47;0.90;;;6.90;99.90;;;;;;5046947;28;20194;-69
2022/01/16 15:39:43;;;;;;;2.93;1.00;;;6.80;99.90;;;;;;5039111;28;20222;-68
2022/01/16 15:42:09;;;;;;;2.87;0.80;;;6.80;99.90;;;;;;5039028;28;20632;-68
2022/01/16 15:44:36;;;;;;;7.00;1.30;;;6.80;99.90;;;;;;5027913;28;20222;-68
2022/01/16 15:47:02;;;;;;;4.60;1.20;;;6.70;99.90;;;;;;5032627;28;20246;-68
2022/01/16 15:49:29;;;;;;;4.83;1.07;;;6.70;99.90;;;;;;5046943;28;20214;-69
2022/01/16 15:51:55;;;;;;;3.17;0.97;;;6.70;99.90;;;;;;5045186;28;20441;-69
2022/01/16 15:54:21;;;;;;;3.37;1.37;;;6.80;99.90;;;;;;5063482;28;20223;-69
2022/01/16 15:56:48;;;;;;;2.17;1.13;;;6.70;99.90;;;;;;5038012;28;20269;-69
2022/01/16 15:59:14;;;;;;;5.47;1.00;;;6.70;99.90;;;;;;5037285;28;20208;-69
2022/01/16 16:01:40;;;;;;;3.20;1.50;;;6.70;99.90;;;;;;5041780;28;20211;-69
2022/01/16 16:04:07;;;;;;;5.30;1.40;;;6.60;99.90;;;;;;5047134;28;20195;-69
2022/01/16 16:06:34;;;;;;;5.73;1.20;;;6.60;99.90;;;;;;5028837;28;20325;-69
2022/01/16 16:09:00;;;;;;;4.33;0.93;;;6.50;99.90;;;;;;5048000;28;20575;-69
2022/01/16 16:11:27;;;;;;;1.50;1.00;;;6.50;99.90;;;;;;5043662;28;20286;-69